SFY4PC EGBJ-EGFF
Flight info
| Callsign | SFY4PC |
|---|---|
| Flight time | N/A |
| Altitude | 10000 |
| Route | BADIM DCT ICCIN DCT CDF |
| Aircraft | DA42/L-SDFGRY/C |
Departure
| Time | 2026-04-14 14:12 |
|---|---|
| Airport | Gloucestershire Airport (EGBJ) |
Arrival
| Time | N/A |
|---|---|
| Airport | Cardiff International Airport (EGFF) |
| Time | Latitude | Longitude | Altitude | Speed | Heading |
|---|---|---|---|---|---|
| 2026-04-14 13:56 | 51.88930 | -2.16384 | 94 ft | 0 kts | 352° |
| 2026-04-14 14:06 | 51.88944 | -2.16385 | 98 ft | 5 kts | 358° |
| 2026-04-14 14:07 | 51.88991 | -2.16383 | 98 ft | 4 kts | 4° |
| 2026-04-14 14:07 | 51.89035 | -2.16385 | 96 ft | 5 kts | 358° |
| 2026-04-14 14:07 | 51.89067 | -2.16331 | 97 ft | 11 kts | 34° |
| 2026-04-14 14:07 | 51.89150 | -2.16237 | 98 ft | 18 kts | 35° |
| 2026-04-14 14:08 | 51.89223 | -2.16156 | 97 ft | 14 kts | 36° |
| 2026-04-14 14:08 | 51.89323 | -2.16041 | 97 ft | 21 kts | 34° |
| 2026-04-14 14:08 | 51.89427 | -2.15926 | 98 ft | 18 kts | 34° |
| 2026-04-14 14:08 | 51.89517 | -2.15812 | 97 ft | 18 kts | 24° |
| 2026-04-14 14:09 | 51.89615 | -2.15828 | 100 ft | 8 kts | 316° |
| 2026-04-14 14:09 | 51.89631 | -2.15849 | 97 ft | 0 kts | 321° |
| 2026-04-14 14:10 | 51.89634 | -2.15853 | 97 ft | 1 kts | 313° |
| 2026-04-14 14:10 | 51.89662 | -2.15903 | 98 ft | 8 kts | 278° |
| 2026-04-14 14:10 | 51.89627 | -2.15961 | 98 ft | 8 kts | 214° |
| 2026-04-14 14:11 | 51.89581 | -2.16011 | 98 ft | 8 kts | 213° |
| 2026-04-14 14:11 | 51.89566 | -2.16028 | 98 ft | 0 kts | 214° |
| 2026-04-14 14:11 | 51.89556 | -2.16039 | 98 ft | 16 kts | 213° |
| 2026-04-14 14:11 | 51.89295 | -2.16329 | 107 ft | 67 kts | 215° |
| 2026-04-14 14:12 | 51.88894 | -2.16812 | 302 ft | 77 kts | 209° |
| 2026-04-14 14:12 | 51.88453 | -2.17376 | 622 ft | 85 kts | 212° |
| 2026-04-14 14:12 | 51.87982 | -2.17997 | 943 ft | 89 kts | 211° |
| 2026-04-14 14:12 | 51.87503 | -2.18635 | 1268 ft | 89 kts | 213° |
| 2026-04-14 14:13 | 51.87051 | -2.19341 | 1606 ft | 89 kts | 216° |
| 2026-04-14 14:13 | 51.86621 | -2.20070 | 1937 ft | 91 kts | 216° |
| 2026-04-14 14:13 | 51.86164 | -2.20800 | 2261 ft | 91 kts | 213° |
| 2026-04-14 14:13 | 51.85703 | -2.21453 | 2608 ft | 87 kts | 212° |
| 2026-04-14 14:14 | 51.85248 | -2.22068 | 2926 ft | 84 kts | 213° |
| 2026-04-14 14:14 | 51.84795 | -2.22681 | 3219 ft | 86 kts | 215° |
| 2026-04-14 14:14 | 51.84329 | -2.23284 | 3511 ft | 86 kts | 216° |
| 2026-04-14 14:14 | 51.83865 | -2.23953 | 3722 ft | 92 kts | 212° |
| 2026-04-14 14:15 | 51.83369 | -2.24556 | 4092 ft | 86 kts | 217° |
| 2026-04-14 14:15 | 51.82925 | -2.25209 | 4412 ft | 89 kts | 216° |
| 2026-04-14 14:15 | 51.82463 | -2.25862 | 4775 ft | 87 kts | 216° |
| 2026-04-14 14:15 | 51.82003 | -2.26492 | 5114 ft | 87 kts | 221° |
| 2026-04-14 14:16 | 51.81582 | -2.27194 | 5437 ft | 86 kts | 217° |
| 2026-04-14 14:16 | 51.81123 | -2.27812 | 5742 ft | 87 kts | 214° |
| 2026-04-14 14:16 | 51.80638 | -2.28401 | 6041 ft | 87 kts | 217° |
| 2026-04-14 14:17 | 51.79697 | -2.29634 | 6632 ft | 88 kts | 218° |
| 2026-04-14 14:17 | 51.79278 | -2.30226 | 6907 ft | 88 kts | 221° |
| 2026-04-14 14:17 | 51.78831 | -2.30904 | 7198 ft | 89 kts | 220° |
| 2026-04-14 14:17 | 51.78362 | -2.31579 | 7469 ft | 91 kts | 220° |
| 2026-04-14 14:18 | 51.77889 | -2.32266 | 7752 ft | 92 kts | 220° |
| 2026-04-14 14:18 | 51.77423 | -2.32977 | 8010 ft | 94 kts | 221° |
| 2026-04-14 14:18 | 51.76890 | -2.33756 | 8091 ft | 112 kts | 219° |
| 2026-04-14 14:18 | 51.76261 | -2.34630 | 8110 ft | 125 kts | 220° |
| 2026-04-14 14:19 | 51.75590 | -2.35582 | 8066 ft | 136 kts | 220° |
| 2026-04-14 14:19 | 51.74878 | -2.36643 | 8039 ft | 139 kts | 222° |
| 2026-04-14 14:19 | 51.74188 | -2.37693 | 8034 ft | 138 kts | 221° |
| 2026-04-14 14:19 | 51.73488 | -2.38737 | 8034 ft | 137 kts | 221° |
| 2026-04-14 14:20 | 51.72791 | -2.39774 | 8038 ft | 136 kts | 221° |
| 2026-04-14 14:20 | 51.72095 | -2.40812 | 8039 ft | 136 kts | 221° |
| 2026-04-14 14:20 | 51.71399 | -2.41854 | 8038 ft | 137 kts | 221° |
| 2026-04-14 14:20 | 51.70703 | -2.42896 | 8053 ft | 137 kts | 221° |
| 2026-04-14 14:21 | 51.70005 | -2.43932 | 8051 ft | 136 kts | 221° |
| 2026-04-14 14:21 | 51.69295 | -2.44952 | 8043 ft | 136 kts | 219° |
| 2026-04-14 14:21 | 51.68561 | -2.45924 | 8046 ft | 137 kts | 218° |
| 2026-04-14 14:21 | 51.67823 | -2.46898 | 8047 ft | 137 kts | 218° |
| 2026-04-14 14:22 | 51.67089 | -2.47865 | 8051 ft | 137 kts | 218° |
| 2026-04-14 14:22 | 51.66350 | -2.48830 | 8054 ft | 137 kts | 218° |
| 2026-04-14 14:22 | 51.65608 | -2.49793 | 8055 ft | 137 kts | 218° |
| 2026-04-14 14:22 | 51.64856 | -2.50765 | 8061 ft | 140 kts | 218° |
| 2026-04-14 14:23 | 51.64111 | -2.51782 | 8035 ft | 143 kts | 228° |
| 2026-04-14 14:23 | 51.63832 | -2.53320 | 8030 ft | 153 kts | 269° |
| 2026-04-14 14:23 | 51.64151 | -2.54997 | 8038 ft | 157 kts | 283° |
| 2026-04-14 14:23 | 51.64545 | -2.56639 | 8043 ft | 158 kts | 284° |
| 2026-04-14 14:24 | 51.64936 | -2.58291 | 8040 ft | 157 kts | 280° |
| 2026-04-14 14:24 | 51.65107 | -2.59992 | 8034 ft | 153 kts | 269° |
| 2026-04-14 14:24 | 51.65216 | -2.61696 | 8036 ft | 152 kts | 269° |
| 2026-04-14 14:24 | 51.65320 | -2.63392 | 8034 ft | 152 kts | 269° |
| 2026-04-14 14:25 | 51.65434 | -2.65087 | 8031 ft | 152 kts | 270° |
| 2026-04-14 14:25 | 51.65561 | -2.66771 | 8030 ft | 151 kts | 270° |
| 2026-04-14 14:25 | 51.65691 | -2.68438 | 8033 ft | 150 kts | 270° |
| 2026-04-14 14:25 | 51.65823 | -2.70101 | 8031 ft | 150 kts | 270° |
| 2026-04-14 14:26 | 51.65953 | -2.71769 | 8028 ft | 151 kts | 270° |
| 2026-04-14 14:26 | 51.66060 | -2.73428 | 8021 ft | 150 kts | 265° |
| 2026-04-14 14:26 | 51.65741 | -2.74945 | 8031 ft | 143 kts | 236° |
| 2026-04-14 14:26 | 51.65256 | -2.76344 | 8032 ft | 143 kts | 238° |
| 2026-04-14 14:27 | 51.64787 | -2.77754 | 8030 ft | 143 kts | 238° |
| 2026-04-14 14:27 | 51.64318 | -2.79167 | 8035 ft | 143 kts | 238° |
| 2026-04-14 14:27 | 51.63825 | -2.80551 | 8032 ft | 141 kts | 233° |
| 2026-04-14 14:27 | 51.63273 | -2.81856 | 8030 ft | 141 kts | 232° |
| 2026-04-14 14:28 | 51.62699 | -2.83150 | 8038 ft | 142 kts | 230° |
| 2026-04-14 14:28 | 51.62080 | -2.84382 | 8028 ft | 142 kts | 228° |
| 2026-04-14 14:28 | 51.61451 | -2.85608 | 8023 ft | 142 kts | 228° |
| 2026-04-14 14:28 | 51.60827 | -2.86829 | 8031 ft | 141 kts | 229° |
| 2026-04-14 14:29 | 51.60238 | -2.88092 | 8025 ft | 141 kts | 231° |
| 2026-04-14 14:29 | 51.59661 | -2.89364 | 8027 ft | 141 kts | 231° |
| 2026-04-14 14:29 | 51.59079 | -2.90627 | 8027 ft | 140 kts | 231° |
| 2026-04-14 14:29 | 51.58494 | -2.91880 | 8027 ft | 140 kts | 231° |
| 2026-04-14 14:30 | 51.57910 | -2.93129 | 8024 ft | 140 kts | 231° |
| 2026-04-14 14:30 | 51.57329 | -2.94374 | 8022 ft | 139 kts | 231° |
| 2026-04-14 14:30 | 51.56751 | -2.95615 | 8023 ft | 139 kts | 231° |
| 2026-04-14 14:30 | 51.56171 | -2.96859 | 8030 ft | 139 kts | 231° |
| 2026-04-14 14:31 | 51.55591 | -2.98101 | 8026 ft | 140 kts | 231° |
| 2026-04-14 14:31 | 51.55026 | -2.99379 | 8027 ft | 140 kts | 233° |
| 2026-04-14 14:31 | 51.54511 | -3.00574 | 8023 ft | 140 kts | 233° |
| 2026-04-14 14:31 | 51.53927 | -3.01931 | 8023 ft | 139 kts | 233° |
| 2026-04-14 14:32 | 51.53378 | -3.03208 | 8015 ft | 139 kts | 233° |
| 2026-04-14 14:32 | 51.52821 | -3.04492 | 7922 ft | 141 kts | 233° |
| 2026-04-14 14:32 | 51.52266 | -3.05775 | 7720 ft | 138 kts | 233° |
| 2026-04-14 14:32 | 51.51724 | -3.07034 | 7520 ft | 136 kts | 233° |
| 2026-04-14 14:33 | 51.51193 | -3.08279 | 7314 ft | 135 kts | 233° |
| 2026-04-14 14:33 | 51.50663 | -3.09507 | 7117 ft | 133 kts | 231° |
| 2026-04-14 14:33 | 51.50121 | -3.10711 | 6922 ft | 133 kts | 231° |
| 2026-04-14 14:33 | 51.49582 | -3.11911 | 6725 ft | 132 kts | 231° |
| 2026-04-14 14:34 | 51.48524 | -3.14304 | 6334 ft | 131 kts | 231° |
| 2026-04-14 14:34 | 51.48002 | -3.15499 | 6124 ft | 130 kts | 231° |
| 2026-04-14 14:34 | 51.47482 | -3.16683 | 5921 ft | 130 kts | 231° |
| 2026-04-14 14:35 | 51.46945 | -3.17834 | 5715 ft | 129 kts | 229° |
| 2026-04-14 14:35 | 51.46403 | -3.18968 | 5501 ft | 127 kts | 229° |
| 2026-04-14 14:35 | 51.45868 | -3.20071 | 5309 ft | 127 kts | 229° |
| 2026-04-14 14:35 | 51.45329 | -3.21180 | 5106 ft | 125 kts | 229° |
| 2026-04-14 14:36 | 51.44787 | -3.22286 | 4910 ft | 127 kts | 229° |
| 2026-04-14 14:36 | 51.44238 | -3.23403 | 4702 ft | 127 kts | 229° |
| 2026-04-14 14:36 | 51.43699 | -3.24525 | 4499 ft | 127 kts | 230° |
| 2026-04-14 14:36 | 51.43187 | -3.25680 | 4286 ft | 126 kts | 231° |
| 2026-04-14 14:37 | 51.42690 | -3.26828 | 4063 ft | 125 kts | 231° |
| 2026-04-14 14:37 | 51.42202 | -3.27942 | 3978 ft | 121 kts | 231° |
| 2026-04-14 14:37 | 51.41724 | -3.29022 | 3968 ft | 115 kts | 230° |
| 2026-04-14 14:37 | 51.41243 | -3.30059 | 3920 ft | 116 kts | 231° |
| 2026-04-14 14:38 | 51.40769 | -3.31097 | 3892 ft | 113 kts | 230° |
| 2026-04-14 14:38 | 51.40328 | -3.32066 | 3906 ft | 108 kts | 229° |
| 2026-04-14 14:38 | 51.39894 | -3.33054 | 3955 ft | 105 kts | 231° |
| 2026-04-14 14:38 | 51.39502 | -3.34012 | 3991 ft | 104 kts | 231° |
| 2026-04-14 14:39 | 51.38975 | -3.34732 | 4002 ft | 103 kts | 199° |
| 2026-04-14 14:39 | 51.38239 | -3.34614 | 3978 ft | 115 kts | 159° |
| 2026-04-14 14:39 | 51.37705 | -3.33612 | 4026 ft | 124 kts | 128° |
| 2026-04-14 14:39 | 51.37322 | -3.32370 | 4015 ft | 127 kts | 126° |
| 2026-04-14 14:40 | 51.36922 | -3.31099 | 4019 ft | 125 kts | 131° |
| 2026-04-14 14:40 | 51.36397 | -3.30058 | 4003 ft | 121 kts | 146° |
| 2026-04-14 14:40 | 51.35784 | -3.29136 | 3984 ft | 122 kts | 147° |
| 2026-04-14 14:40 | 51.35152 | -3.28247 | 3990 ft | 119 kts | 149° |
| 2026-04-14 14:41 | 51.34567 | -3.27354 | 4042 ft | 123 kts | 133° |
| 2026-04-14 14:41 | 51.34435 | -3.25916 | 4004 ft | 144 kts | 85° |
| 2026-04-14 14:41 | 51.34979 | -3.24532 | 3973 ft | 153 kts | 41° |
| 2026-04-14 14:41 | 51.35954 | -3.23953 | 3970 ft | 149 kts | 358° |
| 2026-04-14 14:42 | 51.36891 | -3.24436 | 3952 ft | 136 kts | 313° |
| 2026-04-14 14:42 | 51.37359 | -3.25632 | 3914 ft | 126 kts | 282° |
| 2026-04-14 14:42 | 51.37677 | -3.26923 | 3939 ft | 123 kts | 285° |
| 2026-04-14 14:42 | 51.38019 | -3.28183 | 3920 ft | 124 kts | 283° |
| 2026-04-14 14:43 | 51.38347 | -3.29438 | 3946 ft | 121 kts | 281° |
| 2026-04-14 14:43 | 51.38549 | -3.30281 | 3925 ft | 123 kts | 281° |
| 2026-04-14 14:43 | 51.38835 | -3.31555 | 3931 ft | 121 kts | 279° |
| 2026-04-14 14:43 | 51.39124 | -3.32821 | 3932 ft | 122 kts | 283° |
| 2026-04-14 14:44 | 51.39454 | -3.34078 | 3958 ft | 121 kts | 282° |
| 2026-04-14 14:44 | 51.39488 | -3.35315 | 3975 ft | 108 kts | 240° |
| 2026-04-14 14:44 | 51.38946 | -3.36058 | 3976 ft | 106 kts | 196° |
| 2026-04-14 14:44 | 51.38209 | -3.35848 | 3967 ft | 117 kts | 155° |
| 2026-04-14 14:45 | 51.37699 | -3.34773 | 3974 ft | 126 kts | 127° |
| 2026-04-14 14:45 | 51.37210 | -3.33717 | 3991 ft | 119 kts | 146° |
| 2026-04-14 14:45 | 51.36605 | -3.32817 | 3992 ft | 118 kts | 147° |
| 2026-04-14 14:45 | 51.35988 | -3.31953 | 4012 ft | 117 kts | 149° |
| 2026-04-14 14:46 | 51.35377 | -3.31084 | 3993 ft | 119 kts | 148° |
| 2026-04-14 14:46 | 51.34779 | -3.30149 | 3985 ft | 125 kts | 134° |
| 2026-04-14 14:46 | 51.34485 | -3.28771 | 3943 ft | 138 kts | 104° |
| 2026-04-14 14:46 | 51.34731 | -3.27240 | 3934 ft | 150 kts | 63° |
| 2026-04-14 14:47 | 51.35510 | -3.26131 | 3918 ft | 153 kts | 25° |
| 2026-04-14 14:47 | 51.36512 | -3.25896 | 3998 ft | 140 kts | 345° |
| 2026-04-14 14:47 | 51.37335 | -3.26564 | 3998 ft | 128 kts | 304° |
| 2026-04-14 14:47 | 51.37771 | -3.27758 | 3952 ft | 126 kts | 286° |
| 2026-04-14 14:48 | 51.38143 | -3.29026 | 3935 ft | 125 kts | 285° |
| 2026-04-14 14:48 | 51.38513 | -3.30307 | 3867 ft | 129 kts | 285° |
| 2026-04-14 14:48 | 51.38764 | -3.31169 | 3852 ft | 128 kts | 286° |